Latest Coastal Weather Observations for Noarlunga

IDS60701

Issued at 8:31 pm CST Sunday 30 April 2017 (issued every 10 minutes, with the page automatically refreshed every 10 minutes)

About coastal observations | Map of coastal stations | Coastal observations for SA | Marine services | Other Formats
Station Details ID: 023885 Name: NOARLUNGA Lat: -35.16 Lon: 138.51 Height: 55.0 m
Data from the previous 72 hours. | See also: Recent months at Noarlunga
Date/Time
CST
Temp
°C
Wind Pressure Rain since
9am
mm
Weather Cloud Vis
km
Sea
Height
m
Swell
Dir  Spd
kts
Gust
kts
hPa Trend Height
m
Period
s
Dir
30/08:30pm 15.8 NE 3 4 - - 0.2 - - - - - - -
30/08:00pm 16.2 NNE 2 3 - - 0.2 - - - - - - -
30/07:30pm 16.4 NNE 2 3 - - 0.2 - - - - - - -
30/07:00pm 16.5 NNE 3 4 - - 0.2 - - - - - - -
30/06:30pm 16.6 N 4 5 - - 0.2 - - - - - - -
30/06:00pm 16.5 NNW 4 5 - - 0.2 - - - - - - -
30/05:30pm 16.6 NNW 5 7 - - 0.2 - - - - - - -
30/05:00pm 16.8 NNW 5 8 - - 0.2 - - - - - - -
30/04:30pm 16.8 NW 5 8 - - 0.2 - - - - - - -
30/04:00pm 17.0 NNW 4 6 - - 0.2 - - - - - - -
30/03:30pm 18.0 NNW 5 10 - - 0.2 - - - - - - -
30/03:00pm 17.7 NNW 5 9 - - 0.2 - - - - - - -
30/02:30pm 17.1 NNW 6 9 - - 0.2 - - - - - - -
30/02:00pm 16.9 NNW 9 13 - - 0.2 - - - - - - -
30/01:30pm 16.9 N 8 14 - - 0.2 - - - - - - -
30/01:00pm 18.2 N 12 17 - - 0.2 - - - - - - -
30/12:30pm 17.3 N 12 17 - - 0.2 - - - - - - -
30/12:00pm 17.6 N 10 16 - - 0.2 - - - - - - -
30/11:30am 17.0 N 10 16 - - 0.2 - - - - - - -
30/11:00am 17.2 NNW 9 14 - - 0.2 - - - - - - -
30/10:30am 17.0 NNW 10 13 - - 0.2 - - - - - - -
30/10:00am 17.0 N 7 12 - - 0.0 - - - - - - -
30/09:30am 16.4 N 5 8 - - 0.0 - - - - - - -
30/09:00am 16.1 N 5 8 - - 0.0 - - - - - - -
30/08:30am 15.9 N 4 6 - - 0.0 - - - - - - -
30/08:00am 15.5 N 4 6 - - 0.0 - - - - - - -
30/07:30am 15.2 NNE 3 4 - - 0.0 - - - - - - -
30/07:00am 15.1 NNE 3 4 - - 0.0 - - - - - - -
30/06:30am 15.3 NNE 4 5 - - 0.0 - - - - - - -
30/06:00am 15.3 NNE 4 6 - - 0.0 - - - - - - -
30/05:30am 15.4 NNE 5 7 - - 0.0 - - - - - - -
30/05:00am 15.3 NNE 4 6 - - 0.0 - - - - - - -
30/04:30am 15.2 CALM 0 0 - - 0.0 - - - - - - -
30/04:00am 15.1 NE 1 1 - - 0.0 - - - - - - -
30/03:30am 15.3 NE 2 3 - - 0.0 - - - - - - -
30/03:00am 15.4 ENE 2 3 - - 0.0 - - - - - - -
30/02:30am 15.4 NE 2 3 - - 0.0 - - - - - - -
30/02:00am 15.5 NE 2 3 - - 0.0 - - - - - - -
30/01:30am 15.6 ENE 3 4 - - 0.0 - - - - - - -
30/01:00am 15.7 NE 2 3 - - 0.0 - - - - - - -
30/12:30am 15.6 ENE 2 2 - - 0.0 - - - - - - -
30/12:00am 15.7 ENE 3 5 - - 0.0 - - - - - - -
 
Date/Time
CST
Temp
°C
Wind Pressure Rain since
9am
mm
Weather Cloud Vis
km
Sea
Height
m
Swell
Dir  Spd
kts
Gust
kts
hPa Trend Height
m
Period
s
Dir
29/11:30pm 15.7 NE 2 3 - - 0.0 - - - - - - -
29/11:00pm 15.8 NE 2 3 - - 0.0 - - - - - - -
29/10:30pm 15.8 CALM 0 2 - - 0.0 - - - - - - -
29/10:00pm 15.8 SSE 1 3 - - 0.0 - - - - - - -
29/09:30pm 15.6 CALM 0 0 - - 0.0 - - - - - - -
29/09:00pm 15.9 CALM 0 1 - - 0.0 - - - - - - -
29/08:30pm 15.8 CALM 0 0 - - 0.0 - - - - - - -
29/08:00pm 15.9 SSE 1 2 - - 0.0 - - - - - - -
29/07:30pm 16.2 NE 2 2 - - 0.0 - - - - - - -
29/07:00pm 16.3 CALM 0 0 - - 0.0 - - - - - - -
29/06:30pm 16.4 E 1 2 - - 0.0 - - - - - - -
29/06:00pm 16.5 E 3 4 - - 0.0 - - - - - - -
29/05:30pm 16.5 CALM 0 0 - - 0.0 - - - - - - -
29/05:00pm 16.7 WNW 2 4 - - 0.0 - - - - - - -
29/04:30pm 16.9 WNW 2 4 - - 0.0 - - - - - - -
29/04:00pm 16.9 NNW 3 6 - - 0.0 - - - - - - -
29/03:30pm 17.1 NW 4 6 - - 0.0 - - - - - - -
29/03:00pm 16.9 WNW 4 7 - - 0.0 - - - - - - -
29/02:30pm 16.8 WNW 4 6 - - 0.0 - - - - - - -
29/02:00pm 16.9 WNW 4 6 - - 0.0 - - - - - - -
29/01:30pm 17.0 WNW 5 8 - - 0.0 - - - - - - -
29/01:00pm 17.2 WNW 4 6 - - 0.0 - - - - - - -
29/12:30pm 17.2 WNW 5 8 - - 0.0 - - - - - - -
29/12:00pm 17.1 NW 4 7 - - 0.0 - - - - - - -
29/11:30am 16.9 WNW 4 7 - - 0.0 - - - - - - -
29/11:00am 17.0 SW 1 3 - - 0.0 - - - - - - -
29/10:30am 16.7 NNW 3 5 - - 0.0 - - - - - - -
29/10:00am 16.6 NNE 3 5 - - 0.0 - - - - - - -
29/09:30am 16.3 NE 4 4 - - 0.0 - - - - - - -
29/09:00am 16.0 NE 1 2 - - 0.2 - - - - - - -
29/08:30am 15.5 NE 1 2 - - 0.2 - - - - - - -
29/08:00am 14.8 ENE 1 2 - - 0.2 - - - - - - -
29/07:30am 14.4 ENE 1 2 - - 0.2 - - - - - - -
29/07:00am 14.2 ENE 3 4 - - 0.2 - - - - - - -
29/06:30am 14.2 E 1 2 - - 0.2 - - - - - - -
29/06:00am 14.2 E 2 3 - - 0.2 - - - - - - -
29/05:30am 14.3 SSE 2 2 - - 0.2 - - - - - - -
29/05:00am 14.5 S 2 4 - - 0.2 - - - - - - -
29/04:30am 14.6 CALM 0 2 - - 0.2 - - - - - - -
29/04:00am 14.7 SW 3 7 - - 0.2 - - - - - - -
29/03:30am 14.7 WSW 3 5 - - 0.2 - - - - - - -
29/03:00am 13.7 CALM 0 1 - - 0.2 - - - - - - -
29/02:30am 13.8 NE 1 2 - - 0.2 - - - - - - -
29/02:00am 13.6 NE 3 4 - - 0.2 - - - - - - -
29/01:30am 13.5 NE 4 6 - - 0.2 - - - - - - -
29/01:00am 13.5 NE 4 5 - - 0.2 - - - - - - -
29/12:30am 13.8 N 3 5 - - 0.2 - - - - - - -
29/12:00am 14.0 ENE 2 4 - - 0.2 - - - - - - -
 
Date/Time
CST
Temp
°C
Wind Pressure Rain since
9am
mm
Weather Cloud Vis
km
Sea
Height
m
Swell
Dir  Spd
kts
Gust
kts
hPa Trend Height
m
Period
s
Dir
28/11:30pm 14.0 E 2 3 - - 0.2 - - - - - - -
28/11:00pm 13.9 SSW 3 4 - - 0.2 - - - - - - -
28/10:30pm 13.9 NE 4 6 - - 0.2 - - - - - - -
28/10:00pm 14.4 W 1 3 - - 0.2 - - - - - - -
28/09:30pm 14.7 CALM 0 1 - - 0.0 - - - - - - -
28/09:00pm 14.7 ENE 2 3 - - 0.0 - - - - - - -
28/08:30pm 14.6 E 3 5 - - 0.0 - - - - - - -
28/08:00pm 14.4 E 3 5 - - 0.0 - - - - - - -
28/07:30pm 14.3 ENE 3 4 - - 0.0 - - - - - - -
28/07:00pm 14.3 ENE 2 3 - - 0.0 - - - - - - -
28/06:30pm 14.6 ENE 2 3 - - 0.0 - - - - - - -
28/06:00pm 14.9 CALM 0 0 - - 0.0 - - - - - - -
28/05:30pm 15.8 W 6 9 - - 0.0 - - - - - - -
28/05:00pm 16.6 WSW 3 4 - - 0.0 - - - - - - -
28/04:30pm 16.9 W 4 6 - - 0.0 - - - - - - -
28/04:00pm 17.0 W 5 8 - - 0.0 - - - - - - -
28/03:30pm 17.4 W 4 8 - - 0.0 - - - - - - -
28/03:00pm 17.7 WSW 6 9 - - 0.0 - - - - - - -
28/02:30pm 17.7 SW 8 12 - - 0.0 - - - - - - -
28/02:00pm 17.4 WSW 7 11 - - 0.0 - - - - - - -
28/01:30pm 17.0 W 4 7 - - 0.0 - - - - - - -
28/01:00pm 17.0 W 4 7 - - 0.0 - - - - - - -
28/12:30pm 17.1 WNW 2 4 - - 0.0 - - - - - - -
28/12:00pm 16.4 SSW 1 3 - - 0.0 - - - - - - -
28/11:30am 15.8 SW 3 5 - - 0.0 - - - - - - -
28/11:00am 16.3 SSW 4 9 - - 0.0 - - - - - - -
28/10:30am 15.6 SSW 2 3 - - 0.0 - - - - - - -
28/10:00am 15.4 NNE 4 5 - - 0.0 - - - - - - -
28/09:30am 14.9 NNE 5 6 - - 0.0 - - - - - - -
28/09:00am 14.6 NNE 3 4 - - 1.0 - - - - - - -
28/08:30am 14.1 NE 3 4 - - 1.0 - - - - - - -
28/08:00am 13.5 NE 4 5 - - 1.0 - - - - - - -
28/07:30am 13.1 NE 4 6 - - 1.0 - - - - - - -
28/07:00am 12.8 NE 4 6 - - 1.0 - - - - - - -
28/06:30am 12.7 NE 3 4 - - 1.0 - - - - - - -
28/06:00am 12.8 NE 3 4 - - 1.0 - - - - - - -
28/05:30am 12.7 NE 4 5 - - 1.0 - - - - - - -
28/05:00am 12.7 ENE 2 3 - - 1.0 - - - - - - -
28/04:30am 12.6 NE 3 5 - - 1.0 - - - - - - -
28/04:00am 12.6 NE 3 5 - - 1.0 - - - - - - -
28/03:30am 12.6 NE 3 4 - - 1.0 - - - - - - -
28/03:00am 12.4 NE 3 5 - - 1.0 Recent precip. - - - - - -
28/02:30am 12.7 NE 3 4 - - 1.0 - - - - - - -
28/02:00am 12.8 ENE 2 3 - - 0.8 - - - - - - -
28/01:30am 12.7 ESE 3 5 - - 0.8 - - - - - - -
28/01:00am 12.7 E 3 5 - - 0.8 - - - - - - -
28/12:30am 13.0 ENE 1 1 - - 0.2 - - - - - - -
28/12:00am 13.0 NE 3 4 - - 0.2 Recent precip. - - - - - -
 
Date/Time
CST
Temp
°C
Wind Pressure Rain since
9am
mm
Weather Cloud Vis
km
Sea
Height
m
Swell
Dir  Spd
kts
Gust
kts
hPa Trend Height
m
Period
s
Dir
27/11:30pm 13.2 ENE 3 5 - - 0.2 - - - - - - -
27/11:00pm 13.2 ENE 3 4 - - 0.0 - - - - - - -
27/10:30pm 13.1 NE 4 6 - - 0.0 - - - - - - -
27/10:00pm 13.2 NE 4 5 - - 0.0 - - - - - - -
27/09:30pm 13.2 NE 3 4 - - 0.0 - - - - - - -
27/09:00pm 13.0 NE 2 4 - - 0.0 - - - - - - -

Other Formats:

Comma delimited format used in spreadsheet applications
http://www.bom.gov.au/fwo/IDS60701/IDS60701.94808.axf

JavaScript Object Notation format (JSON) in row-major order
http://www.bom.gov.au/fwo/IDS60701/IDS60701.94808.json